Time;durP1;ratioP1;P1;durP2;ratioP2;P2;SDS_P1;SDS_P2;PMS_P1;PMS_P2;Temp;Humidity;BMP_temperature;BMP_pressure;BME280_temperature;BME280_humidity;BME280_pressure;Samples;Min_cycle;Max_cycle;Signal;HPM_P1;HPM_P2
2023/04/04 00:00:47;;;;;;;3.73;1.53;;;;;;;-142.75;100.00;79488.63;5013017;28;20026;-64
2023/04/04 00:03:12;;;;;;;;;;;;;;;-142.75;100.00;79492.56;5013246;28;20049;-64
2023/04/04 00:05:38;;;;;;;3.83;1.57;;;;;;;-142.75;100.00;79518.19;5012217;28;19913;-67
2023/04/04 00:08:04;;;;;;;3.73;1.70;;;;;;;-142.75;100.00;79514.25;4995096;28;20482;-67
2023/04/04 00:10:29;;;;;;;;;;;;;;;-142.75;100.00;79498.47;4995533;28;20022;-63
2023/04/04 00:12:54;;;;;;;4.00;1.53;;;;;;;-142.75;100.00;79516.22;5012703;28;19976;-65
2023/04/04 00:15:20;;;;;;;2.87;1.50;;;;;;;-142.75;100.00;79504.41;5012636;28;20030;-65
2023/04/04 00:17:45;;;;;;;3.60;1.60;;;;;;;-142.75;100.00;79492.56;5012630;28;20117;-65
2023/04/04 00:20:10;;;;;;;;;;;;;;;-142.75;100.00;79486.66;5013061;28;20030;-65
2023/04/04 00:22:36;;;;;;;4.83;1.80;;;;;;;-142.75;100.00;79492.56;5011650;28;19914;-65
2023/04/04 00:25:01;;;;;;;3.87;1.80;;;;;;;-142.75;100.00;79500.47;5012642;28;20032;-64
2023/04/04 00:27:27;;;;;;;3.47;1.70;;;;;;;-142.75;100.00;79500.47;5011091;28;20057;-64
2023/04/04 00:29:52;;;;;;;;;;;;;;;-142.75;100.00;79496.50;5013012;28;20030;-64
2023/04/04 00:32:17;;;;;;;5.43;1.80;;;;;;;-142.75;100.00;79486.66;5012336;28;19913;-65
2023/04/04 00:34:43;;;;;;;;;;;;;;;-142.75;100.00;79490.59;5012828;28;20038;-64
2023/04/04 00:37:11;;;;;;;3.30;1.70;;;;;;;-142.75;100.00;79494.53;5012023;28;19956;-65
2023/04/04 00:39:36;;;;;;;2.53;1.50;;;;;;;-142.75;100.00;79508.34;5012364;28;20505;-64
2023/04/04 00:42:01;;;;;;;5.77;1.90;;;;;;;-142.75;100.00;79506.38;4994529;28;20040;-64
2023/04/04 00:44:27;;;;;;;2.67;1.60;;;;;;;-142.75;100.00;79496.50;5012087;28;20036;-64
2023/04/04 00:46:52;;;;;;;4.53;1.70;;;;;;;-142.75;100.00;79496.50;5012112;28;20025;-64
2023/04/04 00:49:17;;;;;;;8.20;2.20;;;;;;;-142.75;100.00;79484.69;5012158;28;20030;-65
2023/04/04 00:51:43;;;;;;;8.27;1.67;;;;;;;-142.75;100.00;79496.50;5011926;28;20066;-65
2023/04/04 00:54:09;;;;;;;3.33;1.90;;;;;;;-142.75;100.00;79492.56;5012206;28;20224;-65
2023/04/04 00:56:36;;;;;;;;;;;;;;;-142.75;100.00;79508.34;5012310;28;20022;-64
2023/04/04 00:59:02;;;;;;;5.20;2.07;;;;;;;-142.75;100.00;79496.50;5012077;28;19909;-64
2023/04/04 01:01:30;;;;;;;4.13;1.70;;;;;;;-142.75;100.00;79500.47;5011931;28;20397;-65
2023/04/04 01:03:56;;;;;;;4.73;2.27;;;;;;;-142.75;100.00;79496.50;5011907;28;20029;-64
2023/04/04 01:06:21;;;;;;;3.43;1.80;;;;;;;-142.75;100.00;79516.22;5011340;28;20448;-64
2023/04/04 01:08:47;;;;;;;7.50;2.30;;;;;;;-142.75;100.00;79510.31;5011927;28;20425;-66
2023/04/04 01:11:14;;;;;;;4.33;1.60;;;;;;;-142.75;100.00;79535.91;5011932;28;20025;-67
2023/04/04 01:13:39;;;;;;;4.00;1.73;;;;;;;-142.75;100.00;79559.56;5011812;28;20029;-65
2023/04/04 01:16:05;;;;;;;3.73;2.00;;;;;;;-142.75;100.00;79563.50;5011567;28;20056;-65
2023/04/04 01:18:33;;;;;;;4.03;1.97;;;;;;;-142.75;100.00;79553.63;5011884;28;20021;-67
2023/04/04 01:21:09;;;;;;;5.80;2.20;;;;;;;-142.75;100.00;79575.31;5011684;28;20133;-67
2023/04/04 01:24:05;;;;;;;4.53;1.98;;;;;;;-142.75;100.00;79575.31;5011752;28;20590;-67
2023/04/04 01:26:30;;;;;;;3.20;1.57;;;;;;;-142.75;100.00;79595.00;5009785;28;20125;-63
2023/04/04 01:28:57;;;;;;;3.60;1.77;;;;;;;-142.75;100.00;79606.84;5011771;28;20025;-67
2023/04/04 01:31:37;;;;;;;4.73;1.97;;;;;;;-142.75;100.00;79602.88;5011719;28;20041;-67
2023/04/04 01:34:27;;;;;;;5.00;1.83;;;;;;;-142.75;100.00;79591.06;5014253;28;20076;-67
2023/04/04 01:37:01;;;;;;;4.00;1.90;;;;;;;-142.75;100.00;79624.56;5015249;28;20036;-64
2023/04/04 01:39:34;;;;;;;6.17;2.23;;;;;;;-142.75;100.00;79600.91;5015599;28;20397;-67
2023/04/04 01:42:02;;;;;;;6.47;1.90;;;;;;;-142.75;100.00;79598.94;5015406;28;20026;-68
2023/04/04 01:44:27;;;;;;;3.47;1.87;;;;;;;-142.75;100.00;79591.06;5015365;28;20083;-67
2023/04/04 01:46:54;;;;;;;5.77;2.17;;;;;;;-142.75;100.00;79587.13;5015336;28;20025;-67
2023/04/04 01:49:22;;;;;;;4.70;1.90;;;;;;;-142.75;100.00;79579.25;5015378;28;20501;-67
2023/04/04 01:51:50;;;;;;;7.77;2.27;;;;;;;-142.75;100.00;79591.06;5015196;28;20021;-67
2023/04/04 01:54:17;;;;;;;5.60;2.20;;;;;;;-142.75;100.00;79587.13;5015245;28;20088;-67
2023/04/04 01:56:43;;;;;;;4.87;2.17;;;;;;;-142.75;100.00;79598.94;5015142;28;20124;-67
2023/04/04 01:59:08;;;;;;;3.60;2.13;;;;;;;-142.75;100.00;79589.09;5015230;28;20026;-67
2023/04/04 02:01:34;;;;;;;;;;;;;;;-142.75;100.00;79587.13;5015582;28;20097;-66
2023/04/04 02:03:59;;;;;;;4.73;2.33;;;;;;;-142.75;100.00;79606.84;4997609;28;20410;-66
2023/04/04 02:06:25;;;;;;;7.07;2.30;;;;;;;-142.75;100.00;79610.78;5014705;28;20034;-66
2023/04/04 02:08:50;;;;;;;;;;;;;;;-142.75;100.00;79610.78;5015430;28;20033;-67
2023/04/04 02:11:15;;;;;;;4.47;1.83;;;;;;;-142.75;100.00;79616.69;5015028;28;20392;-67
2023/04/04 02:13:43;;;;;;;3.90;2.17;;;;;;;-142.75;100.00;79610.78;5014918;28;20049;-68
2023/04/04 02:16:09;;;;;;;6.37;2.60;;;;;;;-142.75;100.00;79610.78;5014716;28;20400;-67
2023/04/04 02:18:35;;;;;;;6.37;2.77;;;;;;;-142.75;100.00;79600.91;5014596;28;20112;-67
2023/04/04 02:21:01;;;;;;;4.73;1.93;;;;;;;-142.75;100.00;79616.69;5014329;28;20077;-67
2023/04/04 02:23:26;;;;;;;7.07;2.40;;;;;;;-142.75;100.00;79622.59;5014477;28;20433;-67
2023/04/04 02:25:51;;;;;;;4.43;2.23;;;;;;;-142.75;100.00;79634.41;4996822;28;20033;-67
2023/04/04 02:28:17;;;;;;;4.63;2.30;;;;;;;-142.75;100.00;79658.06;5014650;28;20033;-67
2023/04/04 02:30:42;;;;;;;7.40;2.03;;;;;;;-142.75;100.00;79644.25;5014638;28;20025;-67
2023/04/04 02:33:08;;;;;;;5.90;1.77;;;;;;;-142.75;100.00;79654.13;5014508;28;20118;-64
2023/04/04 02:35:33;;;;;;;3.93;2.13;;;;;;;-142.75;100.00;79654.13;5014281;28;20025;-64
2023/04/04 02:37:59;;;;;;;4.13;2.13;;;;;;;-142.75;100.00;79646.22;5014395;28;20029;-64
2023/04/04 02:40:24;;;;;;;7.03;2.00;;;;;;;-142.75;100.00;79660.03;5014495;28;20030;-65
2023/04/04 02:42:49;;;;;;;7.93;2.43;;;;;;;-142.75;100.00;79656.09;5014236;28;20382;-65
2023/04/04 02:45:15;;;;;;;3.77;1.97;;;;;;;-142.75;100.00;79648.19;5013878;28;20541;-65
2023/04/04 02:47:41;;;;;;;6.93;2.10;;;;;;;-142.75;100.00;79663.97;5014321;28;20018;-64
2023/04/04 02:50:08;;;;;;;8.07;2.50;;;;;;;-142.75;100.00;79658.06;4996639;28;20025;-65
2023/04/04 02:52:33;;;;;;;3.50;1.93;;;;;;;-142.75;100.00;79644.25;5014055;28;20029;-65
2023/04/04 02:54:58;;;;;;;5.00;2.17;;;;;;;-142.75;100.00;79626.53;5013916;28;20026;-63
2023/04/04 02:57:24;;;;;;;7.63;2.03;;;;;;;-142.75;100.00;79616.69;5014123;28;20033;-68
2023/04/04 02:59:49;;;;;;;5.70;2.23;;;;;;;-142.75;100.00;79612.75;5014126;28;20026;-67
2023/04/04 03:02:14;;;;;;;6.33;2.20;;;;;;;-142.75;100.00;79591.06;5013908;28;20401;-67
2023/04/04 03:04:40;;;;;;;10.30;2.50;;;;;;;-142.75;100.00;79595.00;4996141;28;20025;-66
2023/04/04 03:07:05;;;;;;;;;;;;;;;-142.75;100.00;79583.19;5014137;28;20044;-67
2023/04/04 03:09:30;;;;;;;4.37;1.93;;;;;;;-142.75;100.00;79583.19;5037560;22;19921;-64
2023/04/04 03:11:56;;;;;;;5.63;2.13;;;;;;;-142.75;100.00;79583.19;5012668;28;20025;-63
2023/04/04 03:14:21;;;;;;;4.60;2.30;;;;;;;-142.75;100.00;79583.19;5013859;28;20025;-63
2023/04/04 03:16:48;;;;;;;5.27;2.33;;;;;;;-142.75;100.00;79591.06;5013695;28;20034;-63
2023/04/04 03:19:14;;;;;;;5.90;2.30;;;;;;;-142.75;100.00;79591.06;4999733;28;20018;-63
2023/04/04 03:21:40;;;;;;;6.07;2.43;;;;;;;-142.75;100.00;79602.88;4994051;28;20045;-64
2023/04/04 03:24:05;;;;;;;3.83;2.00;;;;;;;-142.75;100.00;79598.94;4994244;28;20486;-63
2023/04/04 03:26:31;;;;;;;7.67;2.63;;;;;;;-142.75;100.00;79636.38;4994093;28;20029;-64
2023/04/04 03:28:56;;;;;;;5.80;2.27;;;;;;;-142.75;100.00;79634.41;4994003;28;20057;-63
2023/04/04 03:31:21;;;;;;;;;;;;;;;-142.75;100.00;79652.13;4993207;28;20029;-63
2023/04/04 03:33:47;;;;;;;4.30;2.37;;;;;;;-142.75;100.00;79701.38;4993761;28;19909;-63
2023/04/04 03:36:13;;;;;;;3.50;1.83;;;;;;;-142.75;100.00;79721.09;4993799;28;20025;-60
2023/04/04 03:38:38;;;;;;;6.50;1.90;;;;;;;-142.75;100.00;79728.97;5008806;28;20030;-63
2023/04/04 03:41:06;;;;;;;5.37;2.37;;;;;;;-142.75;100.00;79744.72;4993424;28;20050;-62
2023/04/04 03:43:32;;;;;;;5.40;2.80;;;;;;;-142.75;100.00;79748.66;4993739;28;20494;-64
2023/04/04 03:46:00;;;;;;;5.93;2.90;;;;;;;-142.75;100.00;79732.91;4993526;28;20109;-63
2023/04/04 03:48:26;;;;;;;5.97;1.93;;;;;;;-142.75;100.00;79748.66;4993496;28;20026;-64
2023/04/04 03:50:51;;;;;;;5.00;2.63;;;;;;;-142.75;100.00;79764.44;4993496;28;20113;-64
2023/04/04 03:53:17;;;;;;;5.17;2.30;;;;;;;-142.75;100.00;79760.50;4993511;28;20036;-63
2023/04/04 03:55:42;;;;;;;7.53;2.50;;;;;;;-142.75;100.00;79740.78;4992646;28;20112;-62
2023/04/04 03:58:07;;;;;;;;;;;;;;;-142.75;100.00;79730.94;4993868;28;20035;-63
2023/04/04 04:00:32;;;;;;;4.97;2.30;;;;;;;-142.75;100.00;79748.66;4992173;28;19913;-64
2023/04/04 04:02:58;;;;;;;6.97;2.87;;;;;;;-142.75;100.00;79742.75;4993108;28;20029;-63
2023/04/04 04:05:23;;;;;;;5.60;2.90;;;;;;;-142.75;100.00;79719.13;4991954;28;20480;-64
2023/04/04 04:07:49;;;;;;;6.27;2.50;;;;;;;-142.75;100.00;79746.69;5008116;28;20026;-64
2023/04/04 04:10:14;;;;;;;4.87;2.37;;;;;;;-142.75;100.00;79736.84;4993195;28;20026;-63
2023/04/04 04:12:40;;;;;;;3.57;2.10;;;;;;;-142.75;100.00;79752.63;4993111;28;20026;-63
2023/04/04 04:15:06;;;;;;;5.67;2.37;;;;;;;-142.75;100.00;79764.44;4992887;28;20049;-62
2023/04/04 04:17:32;;;;;;;6.20;2.73;;;;;;;-142.75;100.00;79752.63;4991728;28;20490;-63
2023/04/04 04:19:57;;;;;;;4.13;2.43;;;;;;;-142.75;100.00;79748.66;4992935;28;20032;-63
2023/04/04 04:22:23;;;;;;;10.00;2.37;;;;;;;-142.75;100.00;79768.38;4992752;28;20225;-63
2023/04/04 04:24:48;;;;;;;7.77;2.53;;;;;;;-142.75;100.00;79758.53;5007909;28;20068;-61
2023/04/04 04:27:13;;;;;;;5.40;2.53;;;;;;;-142.75;100.00;79736.84;4992777;28;20034;-63
2023/04/04 04:29:38;;;;;;;4.47;2.53;;;;;;;-142.75;100.00;79756.56;4992862;28;20445;-63
2023/04/04 04:32:04;;;;;;;7.03;2.97;;;;;;;-142.75;100.00;79772.31;4992730;28;20026;-63
2023/04/04 04:34:29;;;;;;;5.87;2.40;;;;;;;-142.75;100.00;79776.25;4992923;28;20493;-63
2023/04/04 04:36:54;;;;;;;4.50;2.40;;;;;;;-142.75;100.00;79788.06;4991327;28;20027;-63
2023/04/04 04:39:20;;;;;;;5.23;2.73;;;;;;;-142.75;100.00;79780.19;4992647;28;20034;-63
2023/04/04 04:41:45;;;;;;;4.77;2.40;;;;;;;-142.75;100.00;79762.47;4992499;28;20030;-63
2023/04/04 04:44:11;;;;;;;5.70;2.77;;;;;;;-142.75;100.00;79758.53;4992871;28;20049;-63
2023/04/04 04:46:36;;;;;;;4.57;2.50;;;;;;;-142.75;100.00;79766.41;4992597;28;20493;-63
2023/04/04 04:49:01;;;;;;;5.93;2.90;;;;;;;-142.75;100.00;79762.47;5000379;28;20050;-63
2023/04/04 04:51:27;;;;;;;6.37;2.83;;;;;;;-142.75;100.00;79778.22;4991184;28;20526;-63
2023/04/04 04:53:52;;;;;;;3.90;2.30;;;;;;;-142.75;100.00;79772.31;4989818;28;20022;-64
2023/04/04 04:56:17;;;;;;;3.63;2.17;;;;;;;-142.75;100.00;79782.16;4991723;28;20041;-64
2023/04/04 04:58:44;;;;;;;5.97;3.07;;;;;;;-142.75;100.00;79780.19;4989843;28;20026;-65
2023/04/04 05:01:09;;;;;;;8.67;2.90;;;;;;;-142.75;100.00;79780.19;4992398;28;20125;-65
2023/04/04 05:03:35;;;;;;;10.13;2.90;;;;;;;-142.75;100.00;79778.22;4991548;28;20494;-66
2023/04/04 05:06:00;;;;;;;6.23;3.33;;;;;;;-142.75;100.00;79776.25;4992256;28;20025;-62
2023/04/04 05:08:26;;;;;;;5.33;3.07;;;;;;;-142.75;100.00;79778.22;4991989;28;20145;-63
2023/04/04 05:10:53;;;;;;;7.07;3.20;;;;;;;-142.75;100.00;79780.19;4992294;28;20029;-64
2023/04/04 05:13:19;;;;;;;6.70;3.43;;;;;;;-142.75;100.00;79766.41;4992182;28;20076;-63
2023/04/04 05:15:46;;;;;;;5.97;3.53;;;;;;;-142.75;100.00;79760.50;4992128;28;20098;-66
2023/04/04 05:18:11;;;;;;;8.43;2.90;;;;;;;-142.75;100.00;79762.47;4990944;28;20029;-65
2023/04/04 05:20:36;;;;;;;4.93;2.90;;;;;;;-142.75;100.00;79758.53;4992261;28;20026;-66
2023/04/04 05:23:02;;;;;;;7.33;3.17;;;;;;;-142.75;100.00;79770.34;4990781;28;20058;-66
2023/04/04 05:25:27;;;;;;;6.93;2.90;;;;;;;-142.75;100.00;79766.41;4992033;28;20078;-66
2023/04/04 05:27:54;;;;;;;7.33;2.63;;;;;;;-142.75;100.00;79772.31;4992058;28;20034;-66
2023/04/04 05:30:20;;;;;;;12.23;5.10;;;;;;;-142.75;100.00;79774.28;4992104;28;20101;-66
2023/04/04 05:32:45;;;;;;;7.57;3.03;;;;;;;-142.75;100.00;79784.13;4992040;28;20110;-63
2023/04/04 05:35:11;;;;;;;8.00;3.73;;;;;;;-142.75;100.00;79784.13;4991980;28;20402;-63
2023/04/04 05:37:39;;;;;;;8.90;3.23;;;;;;;-142.75;100.00;79768.38;4991879;28;20077;-63
2023/04/04 05:40:06;;;;;;;6.80;3.13;;;;;;;-142.75;100.00;79758.53;4992007;28;20486;-64
2023/04/04 05:42:31;;;;;;;13.60;3.23;;;;;;;-142.75;100.00;79748.66;4991896;28;20542;-63
2023/04/04 05:44:57;;;;;;;8.43;3.27;;;;;;;-142.75;100.00;79736.84;4990615;28;20030;-64
2023/04/04 05:47:22;;;;;;;5.47;3.17;;;;;;;-142.75;100.00;79728.97;4990727;28;20030;-63
2023/04/04 05:49:47;;;;;;;8.67;3.50;;;;;;;-142.75;100.00;79705.34;4991954;28;20062;-64
2023/04/04 05:52:13;;;;;;;6.23;3.20;;;;;;;-142.75;100.00;79683.66;4990632;28;20027;-63
2023/04/04 05:54:38;;;;;;;7.10;3.07;;;;;;;-142.75;100.00;79689.56;4990657;28;20482;-63
2023/04/04 05:57:03;;;;;;;5.13;2.97;;;;;;;-142.75;100.00;79646.22;4991887;28;20038;-63
2023/04/04 05:59:29;;;;;;;5.67;3.17;;;;;;;-142.75;100.00;79634.41;4991833;28;20080;-63
2023/04/04 06:01:54;;;;;;;10.03;3.73;;;;;;;-142.75;100.00;79626.53;4991663;28;20077;-63
2023/04/04 06:04:20;;;;;;;7.00;3.23;;;;;;;-142.75;100.00;79646.22;4991892;28;20080;-63
2023/04/04 06:06:45;;;;;;;6.53;3.30;;;;;;;-142.75;100.00;79622.59;4991364;28;20030;-63
2023/04/04 06:09:11;;;;;;;11.23;3.67;;;;;;;-142.75;100.00;79595.00;4990067;28;20034;-64
2023/04/04 06:11:36;;;;;;;7.57;3.53;;;;;;;-142.75;100.00;79600.91;4991745;28;20023;-61
2023/04/04 06:14:01;;;;;;;8.23;4.10;;;;;;;-142.75;100.00;79585.16;4990433;28;20041;-63
2023/04/04 06:16:27;;;;;;;5.63;3.30;;;;;;;-142.75;100.00;79545.75;4991626;28;20034;-63
2023/04/04 06:18:52;;;;;;;7.70;4.13;;;;;;;-142.75;100.00;79531.97;4991812;28;20033;-63
2023/04/04 06:21:17;;;;;;;11.53;3.83;;;;;;;-142.75;100.00;79524.09;4995205;28;20026;-64
2023/04/04 06:23:42;;;;;;;9.13;4.03;;;;;;;-142.75;100.00;79518.19;4993545;28;20523;-63
2023/04/04 06:26:08;;;;;;;7.00;3.57;;;;;;;-142.75;100.00;79496.50;4994826;28;20034;-64
2023/04/04 06:28:33;;;;;;;7.83;4.00;;;;;;;-142.75;100.00;79480.75;4994954;28;20037;-65
2023/04/04 06:30:58;;;;;;;9.23;4.07;;;;;;;-142.75;100.00;79451.22;4995032;28;20026;-65
2023/04/04 06:33:24;;;;;;;7.43;3.53;;;;;;;-142.75;100.00;79465.00;4995084;28;20109;-64
2023/04/04 06:35:49;;;;;;;6.47;3.80;;;;;;;-142.75;100.00;79411.81;4993714;28;20026;-65
2023/04/04 06:38:15;;;;;;;8.27;3.80;;;;;;;-142.75;100.00;79417.72;4994958;28;20105;-65
2023/04/04 06:40:40;;;;;;;6.43;3.47;;;;;;;-142.75;100.00;79411.81;4993754;28;20057;-66
2023/04/04 06:43:05;;;;;;;7.40;3.40;;;;;;;-142.75;100.00;79403.94;4994701;28;20030;-64
2023/04/04 06:45:32;;;;;;;5.97;3.47;;;;;;;-142.75;100.00;79394.09;4993410;28;20490;-66
2023/04/04 06:47:58;;;;;;;9.03;4.07;;;;;;;-142.75;100.00;79370.44;4994666;28;20467;-66
2023/04/04 06:50:24;;;;;;;6.63;3.23;;;;;;;-142.75;100.00;79396.06;4994761;28;20038;-66
2023/04/04 06:52:50;;;;;;;8.50;3.70;;;;;;;-142.75;100.00;79348.78;4994640;28;20486;-66
2023/04/04 06:55:16;;;;;;;6.37;3.40;;;;;;;-142.75;100.00;79315.28;4994553;28;20037;-64
2023/04/04 06:57:42;;;;;;;8.93;3.87;;;;;;;-142.75;100.00;79325.13;4993266;28;20091;-63
2023/04/04 07:00:09;;;;;;;11.30;2.93;;;;;;;-142.75;100.00;79287.72;4994474;28;20101;-64
2023/04/04 07:02:34;;;;;;;5.10;3.10;;;;;;;-142.75;100.00;79232.56;4994187;28;20023;-63
2023/04/04 07:05:00;;;;;;;5.37;2.53;;;;;;;-142.75;100.00;79244.38;4993972;28;20041;-63
2023/04/04 07:07:25;;;;;;;;;;;;;;;-142.75;100.00;79212.84;4994528;28;20034;-62
2023/04/04 07:09:50;;;;;;;3.70;2.67;;;;;;;-142.75;96.58;79149.81;4993421;28;19918;-64
2023/04/04 07:12:16;;;;;;;8.77;2.73;;;;;;;-142.75;92.95;79108.47;5004553;28;20486;-64
2023/04/04 07:14:41;;;;;;;7.80;2.93;;;;;;;-142.75;93.02;79130.13;5013665;28;20037;-64
2023/04/04 07:17:07;;;;;;;8.87;3.00;;;;;;;-142.75;92.86;79120.28;5012358;28;20120;-64
2023/04/04 07:19:32;;;;;;;9.43;3.13;;;;;;;-142.75;92.09;79102.56;5004129;28;20030;-63
2023/04/04 07:21:57;;;;;;;6.73;3.17;;;;;;;-142.75;92.05;79055.28;4992197;28;20064;-64
2023/04/04 07:24:22;;;;;;;4.43;2.90;;;;;;;-142.75;89.59;79011.94;4992400;28;20022;-64
2023/04/04 07:26:48;;;;;;;;;;;;;;;-142.75;88.72;78988.31;4994798;28;20049;-64
2023/04/04 07:29:13;;;;;;;6.33;3.40;;;;;;;-142.75;88.72;79019.81;4992936;28;19914;-64
2023/04/04 07:31:39;;;;;;;7.53;2.97;;;;;;;-142.75;87.99;79023.75;4999489;28;20018;-65
2023/04/04 07:34:04;;;;;;;7.37;3.20;;;;;;;-142.75;88.88;78984.38;5013278;28;20021;-65
2023/04/04 07:36:30;;;;;;;;;;;;;;;-142.75;88.07;78982.41;5013189;28;20481;-65
2023/04/04 07:38:56;;;;;;;6.07;3.37;;;;;;;-142.75;85.62;78960.72;5028350;28;19932;-65
2023/04/04 07:41:21;;;;;;;9.47;3.17;;;;;;;-142.75;88.35;78986.34;5010641;28;20497;-64
2023/04/04 07:43:47;;;;;;;7.63;3.30;;;;;;;-142.75;86.65;78966.66;4985879;28;20026;-64
2023/04/04 07:46:13;;;;;;;8.80;3.30;;;;;;;-142.75;84.47;78897.72;4984803;28;20041;-64
2023/04/04 07:48:38;;;;;;;7.27;3.77;;;;;;;-142.75;83.44;78893.78;4991926;28;20026;-65
2023/04/04 07:51:04;;;;;;;;;;;;;;;-142.75;83.21;78872.09;4993497;28;20506;-65
2023/04/04 07:53:29;;;;;;;7.90;3.47;;;;;;;-142.75;84.35;78807.09;4992988;28;19916;-65
2023/04/04 07:55:55;;;;;;;7.50;3.60;;;;;;;-142.75;83.31;78799.22;4992948;28;20068;-65
2023/04/04 07:58:21;;;;;;;7.37;3.23;;;;;;;-142.75;82.12;78826.81;4992948;28;20033;-64
2023/04/04 08:00:46;;;;;;;7.50;3.20;;;;;;;-142.75;81.36;78840.59;4991616;28;20105;-64
2023/04/04 08:03:12;;;;;;;12.57;3.47;;;;;;;-142.75;83.61;78856.34;4986231;28;20077;-64
2023/04/04 08:05:37;;;;;;;;;;;;;;;-142.75;84.11;78799.22;4983137;28;20019;-64
2023/04/04 08:08:02;;;;;;;6.30;3.13;;;;;;;-142.75;84.51;78773.63;4991286;28;20835;-64
2023/04/04 08:10:27;;;;;;;7.97;3.27;;;;;;;-142.75;82.78;78751.97;4991850;28;20079;-65
2023/04/04 08:12:53;;;;;;;8.23;3.40;;;;;;;-142.75;79.79;78751.97;4992355;28;20071;-66
2023/04/04 08:15:18;;;;;;;;;;;;;;;-142.75;75.16;78698.78;4989308;28;20486;-66
2023/04/04 08:17:43;;;;;;;6.07;2.70;;;;;;;-142.75;76.45;78671.22;4994950;28;19913;-66
2023/04/04 08:20:09;;;;;;;4.10;2.40;;;;;;;-142.75;77.22;78665.28;4992563;28;20022;-67
2023/04/04 08:22:35;;;;;;;6.87;2.40;;;;;;;-142.75;75.46;78637.72;4992437;28;20034;-67
2023/04/04 08:25:02;;;;;;;9.85;3.25;;;;;;;-142.75;77.28;78659.38;4993664;28;20036;-66
2023/04/04 08:27:27;;;;;;;7.95;2.70;;;;;;;-142.75;76.35;78641.66;4991767;28;20113;-67
2023/04/04 08:29:52;;;;;;;5.32;2.42;;;;;;;-142.75;77.18;78598.34;4992346;28;20533;-65
2023/04/04 08:32:18;;;;;;;6.82;2.20;;;;;;;-142.75;77.20;78598.34;4991396;28;20028;-65
2023/04/04 08:34:43;;;;;;;6.30;1.85;;;;;;;-142.75;74.42;78553.03;4991569;28;20038;-64
2023/04/04 08:37:09;;;;;;;4.72;2.40;;;;;;;-142.75;74.10;78525.47;4992476;28;20030;-66
2023/04/04 08:39:35;;;;;;;5.20;2.35;;;;;;;-142.75;71.03;78490.00;4992322;28;20022;-65
2023/04/04 08:42:05;;;;;;;5.57;2.60;;;;;;;-142.75;68.75;78468.34;4990351;28;20034;-66
2023/04/04 08:44:32;;;;;;;5.45;2.10;;;;;;;-142.75;62.60;78474.25;4989879;28;20509;-68
2023/04/04 08:47:07;;;;;;;6.60;2.42;;;;;;;-142.75;67.84;78493.97;4992205;28;20517;-66
2023/04/04 08:49:37;;;;;;;7.32;2.28;;;;;;;-142.75;68.14;78434.88;4992146;28;20486;-65
2023/04/04 08:52:05;;;;;;;10.20;2.20;;;;;;;-142.75;67.62;78423.06;4992312;28;20101;-66
2023/04/04 08:54:33;;;;;;;6.13;2.03;;;;;;;-142.75;69.64;78387.59;4992406;28;20030;-65
2023/04/04 08:56:58;;;;;;;4.70;1.90;;;;;;;-142.75;61.28;78332.47;4999083;28;20374;-63
2023/04/04 08:59:23;;;;;;;5.38;1.80;;;;;;;-142.75;56.72;78304.91;5011738;28;20079;-64
2023/04/04 09:01:56;;;;;;;4.47;2.10;;;;;;;-142.75;59.35;78237.94;5011661;28;20152;-64
2023/04/04 09:04:22;;;;;;;9.00;2.10;;;;;;;-142.75;53.61;78232.03;5011882;28;20038;-64
2023/04/04 09:06:49;;;;;;;4.72;1.90;;;;;;;-142.75;52.48;78239.91;5010534;28;20414;-64
2023/04/04 09:09:16;;;;;;;4.78;2.08;;;;;;;-142.75;51.55;78395.47;5011432;28;20450;-64
2023/04/04 09:11:44;;;;;;;3.75;1.60;;;;;;;-142.75;54.63;78377.75;5011720;28;20036;-65
2023/04/04 09:14:09;;;;;;;7.07;2.15;;;;;;;-142.75;52.18;78322.63;5011781;28;20026;-65
2023/04/04 09:16:35;;;;;;;3.13;1.38;;;;;;;-142.75;52.88;78336.41;5010584;28;20040;-65
2023/04/04 09:19:00;;;;;;;4.93;1.30;;;;;;;-142.75;55.72;78312.78;4998826;28;20030;-64
2023/04/04 09:21:28;;;;;;;4.68;1.60;;;;;;;-142.75;53.09;78334.44;4992031;28;20109;-65
2023/04/04 09:24:00;;;;;;;6.88;1.67;;;;;;;-142.75;51.11;78235.97;4993162;28;20110;-65
2023/04/04 09:26:26;;;;;;;5.03;1.42;;;;;;;-142.75;48.94;78283.22;4995889;28;20030;-65
2023/04/04 09:28:52;;;;;;;4.72;1.60;;;;;;;-142.75;55.09;78300.97;4990460;28;20089;-64
2023/04/04 09:31:18;;;;;;;2.85;1.60;;;;;;;-142.75;50.32;78263.53;4991276;28;20026;-65
2023/04/04 09:33:43;;;;;;;5.32;2.03;;;;;;;-142.75;52.54;78289.13;5004204;28;20440;-65
2023/04/04 09:36:11;;;;;;;5.55;1.63;;;;;;;-142.75;52.85;78385.63;5002772;28;20561;-64
2023/04/04 09:38:42;;;;;;;5.78;1.58;;;;;;;-142.75;53.40;78237.94;4993138;28;20030;-66
2023/04/04 09:41:11;;;;;;;4.60;1.73;;;;;;;-142.75;55.17;78237.94;4991547;28;20030;-65
2023/04/04 09:43:38;;;;;;;3.08;1.48;;;;;;;-142.75;50.60;78232.03;4988995;28;20029;-65
2023/04/04 09:46:05;;;;;;;5.55;1.98;;;;;;;-142.75;50.55;78214.31;4991547;28;20030;-65
2023/04/04 09:48:33;;;;;;;4.88;1.75;;;;;;;-142.75;51.10;78190.69;4993002;28;20121;-64
2023/04/04 09:50:59;;;;;;;9.30;2.28;;;;;;;-142.75;51.18;78235.97;4991761;28;20030;-64
2023/04/04 09:53:24;;;;;;;4.40;1.75;;;;;;;-142.75;49.98;78192.66;4992192;28;20030;-66
2023/04/04 09:55:52;;;;;;;3.65;1.67;;;;;;;-142.75;48.24;78176.88;5008397;28;20030;-66
2023/04/04 09:58:23;;;;;;;5.70;2.28;;;;;;;-142.75;47.80;78098.13;4993568;28;20649;-65
2023/04/04 10:00:54;;;;;;;6.43;2.30;;;;;;;-142.75;46.13;78169.00;4994701;28;20030;-65
2023/04/04 10:03:22;;;;;;;4.53;1.80;;;;;;;-142.75;47.99;78202.50;4995418;28;20026;-64
2023/04/04 10:06:01;;;;;;;6.13;2.42;;;;;;;-142.75;46.67;78226.13;4995137;28;20062;-65
2023/04/04 10:08:28;;;;;;;6.75;2.20;;;;;;;-142.75;50.29;78184.78;4995257;28;20478;-64
2023/04/04 10:10:56;;;;;;;8.15;2.60;;;;;;;-142.75;49.12;78167.03;4993665;28;20034;-64
2023/04/04 10:13:34;;;;;;;6.63;2.08;;;;;;;-142.75;45.65;78145.38;4995269;28;20034;-64
2023/04/04 10:16:02;;;;;;;5.60;1.83;;;;;;;-142.75;48.53;78127.66;4995082;28;20027;-64
2023/04/04 10:18:30;;;;;;;5.35;1.50;;;;;;;-142.75;48.18;78170.97;4995189;28;20065;-65
2023/04/04 10:21:01;;;;;;;6.88;2.17;;;;;;;-142.75;46.18;78141.44;4995131;28;20033;-67
2023/04/04 10:23:27;;;;;;;5.10;2.00;;;;;;;-142.75;46.74;78121.75;4995048;28;20042;-66
2023/04/04 10:25:53;;;;;;;8.40;2.33;;;;;;;-142.75;48.28;78102.06;4995008;28;20037;-67
2023/04/04 10:28:20;;;;;;;5.45;1.65;;;;;;;-142.75;46.48;78074.50;5013493;28;20041;-66
2023/04/04 10:31:01;;;;;;;5.10;1.90;;;;;;;-142.75;46.02;78161.13;5013368;28;20051;-66
2023/04/04 10:33:40;;;;;;;3.90;1.80;;;;;;;-142.75;44.07;78157.19;5011732;28;20030;-65
2023/04/04 10:36:07;;;;;;;6.55;2.03;;;;;;;-142.75;46.18;78170.97;4994412;28;20813;-65
2023/04/04 10:38:43;;;;;;;3.95;1.58;;;;;;;-142.75;48.20;78119.78;4994414;28;20030;-66
2023/04/04 10:41:10;;;;;;;6.85;2.20;;;;;;;-142.75;46.61;78111.91;4994474;28;20026;-66
2023/04/04 10:43:40;;;;;;;4.22;1.63;;;;;;;-142.75;46.18;78127.66;4994301;28;20022;-66
2023/04/04 10:46:16;;;;;;;6.70;1.60;;;;;;;-142.75;43.62;78074.50;4992958;28;20085;-66
2023/04/04 10:48:43;;;;;;;3.97;1.65;;;;;;;-142.75;46.04;78019.34;4994235;28;20018;-66
2023/04/04 10:51:10;;;;;;;3.80;1.75;;;;;;;-142.75;46.18;78021.31;4994204;28;20048;-66
2023/04/04 10:53:38;;;;;;;3.40;1.52;;;;;;;-142.75;44.30;77905.13;4992874;28;20030;-66
2023/04/04 10:56:04;;;;;;;7.25;1.67;;;;;;;-142.75;46.58;77968.16;4994463;28;20026;-64
2023/04/04 10:58:29;;;;;;;6.90;2.50;;;;;;;-142.75;46.41;77958.31;4994383;28;20032;-64
2023/04/04 11:00:56;;;;;;;3.67;1.70;;;;;;;-142.75;44.30;78094.19;4992658;28;20034;-63
2023/04/04 11:03:23;;;;;;;6.35;1.65;;;;;;;-142.75;43.84;78033.13;4994282;28;20517;-65
2023/04/04 11:05:50;;;;;;;4.90;1.70;;;;;;;-142.75;42.11;78109.94;4992794;28;20034;-64
2023/04/04 11:08:18;;;;;;;4.47;2.33;;;;;;;-142.75;42.45;78090.25;4992865;28;20022;-64
2023/04/04 11:10:46;;;;;;;7.53;1.98;;;;;;;-142.75;43.28;78054.81;4994307;28;20030;-62
2023/04/04 11:13:17;;;;;;;3.10;1.42;;;;;;;-142.75;43.75;78052.81;4994126;28;20765;-65